Terminal Aerodrome Forecast
Issued by NWS

Home | Current Version | Previous Version | Text Only | Print | Product List | Glossary On
Versions: 1 2 3 4 5 6 7 8 9 10 11 12 13 14 15 16 17 18 19 20 21 22 23 24 25 26 27 28 29 30
000
FTUS45 KBYZ 210520
TAFLVM
TAF
KLVM 210520Z 2106/2206 23011KT P6SM SKC
     FM211200 23014G22KT P6SM FEW100 SCT200
     FM211700 23020G30KT P6SM VCSH SCT080 BKN120
     FM212200 27022G32KT P6SM VCSH BKN080
     FM220300 26015KT P6SM VCSH SCT070 BKN100=

USA.gov is the U.S. government's official web portal to all federal, state and local government web resources and services.